Time;durP1;ratioP1;P1;durP2;ratioP2;P2;SDS_P1;SDS_P2;PMS_P1;PMS_P2;Temp;Humidity;BMP_temperature;BMP_pressure;BME280_temperature;BME280_humidity;BME280_pressure;Samples;Min_cycle;Max_cycle;Signal;HPM_P1;HPM_P2
2023/09/06 00:02:25;;;;;;;0.05;0.00;;;;;;;21.69;100.00;101864.19;10401634;28;20456;-74
2023/09/06 00:07:26;;;;;;;0.00;0.00;;;;;;;21.51;100.00;101858.09;10401280;28;20049;-75
2023/09/06 00:12:29;;;;;;;2.67;0.05;;;;;;;21.69;100.00;101853.69;10404852;28;20512;-74
2023/09/06 00:17:31;;;;;;;0.00;0.00;;;;;;;21.99;100.00;101841.28;10402518;28;20041;-74
2023/09/06 00:22:32;;;;;;;0.45;0.10;;;;;;;22.10;100.00;101842.06;10403817;28;20484;-75
2023/09/06 00:27:34;;;;;;;0.15;0.15;;;;;;;22.13;100.00;101843.78;10398501;28;20045;-75
2023/09/06 00:32:35;;;;;;;0.00;0.00;;;;;;;21.79;100.00;101846.66;10399601;28;20095;-74
2023/09/06 00:37:37;;;;;;;0.00;0.00;;;;;;;21.78;100.00;101843.13;10394484;28;20049;-75
2023/09/06 00:42:39;;;;;;;0.43;0.15;;;;;;;22.18;100.00;101847.25;10376090;28;20045;-74
2023/09/06 00:47:42;;;;;;;0.00;0.00;;;;;;;22.18;100.00;101842.88;10379871;28;20053;-75
2023/09/06 00:52:44;;;;;;;0.00;0.00;;;;;;;22.04;100.00;101842.09;10400940;28;20049;-74
2023/09/06 00:57:48;;;;;;;0.00;0.00;;;;;;;21.78;100.00;101850.13;10408100;28;20052;-75
2023/09/06 01:02:49;;;;;;;0.00;0.00;;;;;;;21.75;100.00;101848.41;10392385;28;20042;-75
2023/09/06 01:08:00;;;;;;;1.55;0.20;;;;;;;21.52;100.00;101852.00;10385164;28;20049;-75
2023/09/06 01:13:02;;;;;;;0.00;0.00;;;;;;;21.73;100.00;101847.53;10391592;28;20041;-74
2023/09/06 01:18:05;;;;;;;0.00;0.00;;;;;;;21.61;100.00;101852.84;10384642;28;20477;-74
2023/09/06 01:23:33;;;;;;;1.35;0.10;;;;;;;21.71;100.00;101857.16;10393663;28;20049;-75
2023/09/06 01:28:35;;;;;;;0.00;0.00;;;;;;;21.31;100.00;101846.84;10395258;28;20128;-75
2023/09/06 01:33:39;;;;;;;0.20;0.10;;;;;;;21.37;100.00;101850.28;10383113;28;20052;-75
2023/09/06 01:38:41;;;;;;;0.00;0.00;;;;;;;21.39;100.00;101845.91;10389061;28;20072;-75
2023/09/06 01:43:43;;;;;;;0.00;0.00;;;;;;;21.27;100.00;101845.09;10386454;28;20140;-75
2023/09/06 01:48:46;;;;;;;0.00;0.00;;;;;;;21.55;100.00;101840.63;10393470;28;20094;-75
2023/09/06 01:53:48;;;;;;;0.10;0.10;;;;;;;21.77;100.00;101841.41;10416037;28;20052;-75
2023/09/06 01:58:50;;;;;;;0.00;0.00;;;;;;;21.65;100.00;101838.84;10399162;28;20096;-75
2023/09/06 02:03:52;;;;;;;0.00;0.00;;;;;;;21.41;100.00;101851.16;10392187;28;20051;-74
2023/09/06 02:08:54;;;;;;;0.00;0.00;;;;;;;21.27;100.00;101842.47;10404922;28;20038;-74
2023/09/06 02:13:55;;;;;;;0.03;0.00;;;;;;;21.40;100.00;101841.56;10403548;28;20052;-75
2023/09/06 02:18:57;;;;;;;0.00;0.00;;;;;;;21.21;100.00;101840.78;10401519;28;20096;-74
2023/09/06 02:23:59;;;;;;;0.10;0.10;;;;;;;21.55;100.00;101841.50;10389511;28;20053;-75
2023/09/06 02:29:00;;;;;;;0.00;0.00;;;;;;;21.03;100.00;101849.56;10408004;28;20061;-75
2023/09/06 02:34:03;;;;;;;0.00;0.00;;;;;;;20.84;100.00;101860.06;10382462;28;20056;-75
2023/09/06 02:39:04;;;;;;;0.00;0.00;;;;;;;20.90;100.00;101860.03;10393916;28;20053;-75
2023/09/06 02:44:06;;;;;;;0.00;0.00;;;;;;;20.73;100.00;101869.69;10415565;28;20040;-76
2023/09/06 02:49:12;;;;;;;0.00;0.00;;;;;;;20.60;100.00;101869.66;10404510;28;20597;-75
2023/09/06 02:54:17;;;;;;;0.00;0.00;;;;;;;20.22;100.00;101873.13;10403110;28;20535;-74
2023/09/06 02:59:19;;;;;;;0.00;0.00;;;;;;;20.59;100.00;101875.75;10399381;28;20042;-74
2023/09/06 03:04:23;;;;;;;0.00;0.00;;;;;;;20.96;100.00;101860.94;10394501;28;20051;-75
2023/09/06 03:09:28;;;;;;;0.00;0.00;;;;;;;20.75;100.00;101867.94;10393690;28;20037;-74
2023/09/06 03:14:30;;;;;;;0.00;0.00;;;;;;;20.30;100.00;101865.31;10406082;28;20455;-74
2023/09/06 03:19:33;;;;;;;0.00;0.00;;;;;;;20.26;100.00;101884.47;10386035;28;20041;-75
2023/09/06 03:24:40;;;;;;;0.00;0.00;;;;;;;19.95;100.00;101890.53;10381245;28;20136;-74
2023/09/06 03:29:50;;;;;;;0.00;0.00;;;;;;;20.17;100.00;101884.47;10410377;28;20505;-75
2023/09/06 03:34:55;;;;;;;0.00;0.00;;;;;;;20.00;100.00;101890.53;10388745;28;20041;-74
2023/09/06 03:39:58;;;;;;;0.00;0.00;;;;;;;20.34;100.00;101887.09;10392330;28;20691;-75
2023/09/06 03:45:02;;;;;;;0.20;0.00;;;;;;;19.89;100.00;101894.84;10410884;28;20037;-75
2023/09/06 03:50:04;;;;;;;0.00;0.00;;;;;;;20.21;100.00;101892.34;10392403;28;20080;-74
2023/09/06 03:55:09;;;;;;;0.05;0.05;;;;;;;19.75;100.00;101887.81;10405808;28;20505;-74
2023/09/06 04:00:20;;;;;;;0.00;0.00;;;;;;;19.71;100.00;101893.03;10393662;28;20041;-75
2023/09/06 04:05:22;;;;;;;0.08;0.08;;;;;;;20.07;100.00;101888.78;10393953;28;20042;-74
2023/09/06 04:10:27;;;;;;;0.00;0.00;;;;;;;19.81;100.00;101902.66;10440643;28;20045;-75
2023/09/06 04:15:30;;;;;;;0.00;0.00;;;;;;;20.09;100.00;101902.75;10407231;28;20408;-74
2023/09/06 04:20:36;;;;;;;0.70;0.17;;;;;;;20.23;100.00;101901.03;10411102;28;20082;-75
2023/09/06 04:25:42;;;;;;;0.45;0.00;;;;;;;19.94;100.00;101914.94;10383135;28;20123;-74
2023/09/06 04:30:47;;;;;;;0.20;0.05;;;;;;;19.65;100.00;101912.19;10397405;28;20053;-74
2023/09/06 04:35:52;;;;;;;0.00;0.00;;;;;;;19.92;100.00;101911.44;10410973;28;20562;-75
2023/09/06 04:40:55;;;;;;;0.10;0.08;;;;;;;19.55;100.00;101911.25;10394801;28;20045;-75
2023/09/06 04:45:58;;;;;;;0.00;0.00;;;;;;;19.70;100.00;101914.81;10401631;28;20049;-75
2023/09/06 04:51:01;;;;;;;0.00;0.00;;;;;;;19.54;100.00;101925.22;10372157;28;20499;-75
2023/09/06 04:56:04;;;;;;;0.10;0.10;;;;;;;19.39;100.00;101930.34;10412715;28;20178;-73
2023/09/06 05:01:31;;;;;;;0.00;0.00;;;;;;;19.41;100.00;101929.50;10396394;28;20442;-75
2023/09/06 05:06:33;;;;;;;0.00;0.00;;;;;;;19.61;100.00;101933.94;10387796;28;20100;-74
2023/09/06 05:11:35;;;;;;;0.00;0.00;;;;;;;19.26;100.00;101925.03;10393456;28;20041;-74
2023/09/06 05:16:37;;;;;;;0.00;0.00;;;;;;;19.64;100.00;101932.22;10396526;28;20041;-74
2023/09/06 05:21:39;;;;;;;0.00;0.00;;;;;;;19.83;100.00;101937.53;10383503;28;20057;-75
2023/09/06 05:26:41;;;;;;;0.00;0.00;;;;;;;19.61;100.00;101940.06;10385669;28;20163;-75
2023/09/06 05:31:43;;;;;;;0.03;0.03;;;;;;;20.07;100.00;101943.72;10387607;28;20045;-74
2023/09/06 05:36:47;;;;;;;0.00;0.00;;;;;;;20.09;100.00;101949.84;10392930;28;20102;-75
2023/09/06 05:41:50;;;;;;;0.00;0.00;;;;;;;20.37;100.00;101948.19;10394622;28;20045;-75
2023/09/06 05:46:51;;;;;;;0.00;0.00;;;;;;;20.50;100.00;101942.94;10390985;28;20057;-75
2023/09/06 05:51:53;;;;;;;0.10;0.10;;;;;;;20.83;100.00;101949.13;10360919;28;20091;-75
2023/09/06 05:56:55;;;;;;;0.00;0.00;;;;;;;20.99;100.00;101953.47;10388729;28;20046;-74
2023/09/06 06:01:57;;;;;;;0.03;0.03;;;;;;;21.22;100.00;101963.91;10409767;28;20144;-75
2023/09/06 06:07:00;;;;;;;0.00;0.00;;;;;;;21.53;100.00;101958.63;10409447;28;20420;-75
2023/09/06 06:12:03;;;;;;;0.00;0.00;;;;;;;21.82;100.00;101964.63;10420781;28;20053;-75
2023/09/06 06:17:06;;;;;;;0.38;0.13;;;;;;;22.27;100.00;101969.69;10412323;28;20045;-75
2023/09/06 06:22:09;;;;;;;0.10;0.10;;;;;;;22.40;100.00;101966.13;10400555;28;20122;-75
2023/09/06 06:27:10;;;;;;;0.13;0.13;;;;;;;22.84;100.00;101974.56;10387841;28;20083;-74
2023/09/06 06:32:12;;;;;;;5.45;2.70;;;;;;;22.84;100.00;101978.94;10394692;28;20052;-75
2023/09/06 06:37:14;;;;;;;1.02;0.68;;;;;;;23.85;100.00;101986.69;10391503;28;20120;-74
2023/09/06 06:42:17;;;;;;;0.65;0.63;;;;;;;24.20;100.00;101995.91;10427677;28;20049;-75
2023/09/06 06:47:28;;;;;;;0.75;0.50;;;;;;;24.76;100.00;101993.34;10408003;28;20047;-74
2023/09/06 06:52:33;;;;;;;1.00;0.50;;;;;;;25.21;100.00;101989.94;10406984;28;20418;-74
2023/09/06 06:57:35;;;;;;;1.25;0.43;;;;;;;25.58;100.00;101994.53;10401688;28;20041;-76
2023/09/06 07:02:38;;;;;;;0.55;0.40;;;;;;;26.30;100.00;102004.50;10398554;28;20560;-74
2023/09/06 07:07:39;;;;;;;0.10;0.10;;;;;;;27.21;100.00;101991.72;10401384;28;20045;-75
2023/09/06 07:12:41;;;;;;;0.30;0.30;;;;;;;27.04;100.00;101999.25;10406670;28;20091;-75
2023/09/06 07:17:43;;;;;;;0.20;0.20;;;;;;;28.13;100.00;101992.69;10392675;28;20100;-74
2023/09/06 07:22:45;;;;;;;0.28;0.20;;;;;;;28.37;100.00;102005.22;10426972;28;20045;-75
2023/09/06 07:27:47;;;;;;;0.77;0.68;;;;;;;28.21;100.00;102012.75;10397998;28;20145;-74
2023/09/06 07:32:48;;;;;;;0.47;0.32;;;;;;;28.08;100.00;102002.56;10412073;28;20500;-75
2023/09/06 07:37:51;;;;;;;0.82;0.50;;;;;;;28.54;100.00;102004.69;10399832;28;20042;-75
2023/09/06 07:42:53;;;;;;;0.80;0.35;;;;;;;28.62;100.00;102013.25;10411328;28;20384;-75
2023/09/06 07:47:54;;;;;;;0.88;0.70;;;;;;;28.88;100.00;102003.56;10419330;28;20065;-75
2023/09/06 07:52:56;;;;;;;0.22;0.20;;;;;;;29.59;100.00;102009.06;10407510;28;20053;-75
2023/09/06 07:57:58;;;;;;;0.35;0.30;;;;;;;29.57;100.00;102013.56;10395035;28;20045;-74
2023/09/06 08:03:00;;;;;;;0.10;0.10;;;;;;;29.23;100.00;102002.34;10398422;28;20057;-75
2023/09/06 08:08:06;;;;;;;0.55;0.40;;;;;;;29.95;100.00;102013.94;10392495;28;20042;-75
2023/09/06 08:13:08;;;;;;;0.38;0.10;;;;;;;29.31;100.00;102012.72;10404153;28;20038;-75
2023/09/06 08:18:10;;;;;;;0.20;0.20;;;;;;;30.58;100.00;102015.91;10403237;28;20156;-75
2023/09/06 08:23:12;;;;;;;0.00;0.00;;;;;;;30.73;100.00;102017.09;10430721;28;20045;-74
2023/09/06 08:28:15;;;;;;;0.30;0.20;;;;;;;30.42;100.00;102022.78;10408516;28;20683;-75
2023/09/06 08:33:16;;;;;;;0.17;0.17;;;;;;;30.78;100.00;102024.88;10396996;28;20516;-75
2023/09/06 08:38:18;;;;;;;0.25;0.13;;;;;;;30.54;100.00;102023.16;10407828;28;20140;-75
2023/09/06 08:43:23;;;;;;;0.20;0.20;;;;;;;30.82;100.00;102019.38;10400369;28;20136;-75
2023/09/06 08:48:26;;;;;;;0.77;0.47;;;;;;;31.78;100.00;102022.31;10396061;28;20061;-75
2023/09/06 08:53:29;;;;;;;0.22;0.20;;;;;;;30.56;100.00;102030.19;10394149;28;20049;-74
2023/09/06 08:58:33;;;;;;;0.43;0.20;;;;;;;31.26;100.00;102015.72;10402867;28;20054;-75
2023/09/06 09:03:35;;;;;;;0.98;0.45;;;;;;;32.26;100.00;102022.75;10393915;28;20544;-75
2023/09/06 09:08:37;;;;;;;0.35;0.30;;;;;;;32.44;100.00;102018.31;10401352;28;20096;-75
2023/09/06 09:13:40;;;;;;;0.10;0.10;;;;;;;31.95;100.00;102018.84;10400925;28;20051;-75
2023/09/06 09:18:44;;;;;;;0.25;0.25;;;;;;;32.27;100.00;102021.81;10398674;28;20405;-75
2023/09/06 09:23:54;;;;;;;0.13;0.13;;;;;;;32.73;100.00;102024.00;10419003;28;20057;-76
2023/09/06 09:29:01;;;;;;;0.10;0.10;;;;;;;32.86;100.00;102022.50;10393942;28;20465;-75
2023/09/06 09:34:02;;;;;;;0.32;0.13;;;;;;;33.20;100.00;102019.88;10414589;28;20077;-76
2023/09/06 09:39:08;;;;;;;0.08;0.08;;;;;;;34.16;100.00;102017.41;10439041;28;20087;-75
2023/09/06 09:44:13;;;;;;;0.08;0.08;;;;;;;34.14;100.00;102021.97;10393334;28;20052;-75
2023/09/06 09:49:19;;;;;;;0.00;0.00;;;;;;;33.55;100.00;102005.63;10396488;28;20099;-75
2023/09/06 09:54:23;;;;;;;0.20;0.10;;;;;;;32.25;100.00;102011.25;10411534;28;20515;-74
2023/09/06 09:59:26;;;;;;;0.20;0.20;;;;;;;33.16;100.00;102008.50;10409440;28;20041;-75
2023/09/06 10:04:33;;;;;;;0.32;0.17;;;;;;;33.64;100.00;102002.41;10423028;28;20489;-75
2023/09/06 10:09:39;;;;;;;0.08;0.05;;;;;;;34.71;100.00;102005.31;10398452;28;20051;-76
2023/09/06 10:14:42;;;;;;;0.05;0.05;;;;;;;34.61;100.00;102005.00;10397952;28;20543;-75
2023/09/06 10:19:43;;;;;;;0.13;0.13;;;;;;;34.68;100.00;102000.13;10387475;28;20100;-75
2023/09/06 10:24:55;;;;;;;0.00;0.00;;;;;;;35.51;100.00;102004.13;10389692;28;20049;-75
2023/09/06 10:29:58;;;;;;;1.35;0.77;;;;;;;35.28;100.00;101995.66;10416791;28;20160;-75
2023/09/06 10:35:24;;;;;;;0.00;0.00;;;;;;;34.66;100.00;101991.38;10383737;28;20049;-76
2023/09/06 10:40:51;;;;;;;0.57;0.10;;;;;;;35.64;100.00;101988.13;10395179;28;20045;-75
2023/09/06 10:45:58;;;;;;;4.25;0.43;;;;;;;36.12;100.00;101993.09;10412956;28;20446;-74
2023/09/06 10:51:04;;;;;;;0.47;0.20;;;;;;;35.25;100.00;101988.69;10396898;28;20092;-75
2023/09/06 10:56:06;;;;;;;0.95;0.15;;;;;;;35.41;100.00;101985.94;10398372;28;20080;-75
2023/09/06 11:01:18;;;;;;;0.10;0.10;;;;;;;36.90;100.00;101984.31;10401008;28;20541;-75
2023/09/06 11:06:22;;;;;;;0.75;0.35;;;;;;;36.99;100.00;101988.19;10412778;28;20488;-75
2023/09/06 11:11:26;;;;;;;0.20;0.20;;;;;;;35.08;99.94;101971.00;10399582;28;20103;-76
2023/09/06 11:16:28;;;;;;;0.10;0.10;;;;;;;35.59;100.00;101980.38;10373837;28;20081;-75
2023/09/06 11:21:31;;;;;;;0.00;0.00;;;;;;;36.47;100.00;101976.50;10393395;28;20096;-75
2023/09/06 11:26:37;;;;;;;0.17;0.10;;;;;;;36.50;97.54;101971.78;10359743;28;20045;-76
2023/09/06 11:31:39;;;;;;;0.10;0.10;;;;;;;34.88;100.00;101969.53;10392606;28;20053;-76
2023/09/06 11:36:41;;;;;;;0.00;0.00;;;;;;;36.33;99.12;101969.38;10386396;28;20046;-76
2023/09/06 11:41:44;;;;;;;0.15;0.15;;;;;;;35.51;96.08;101958.56;10417545;28;20084;-75
2023/09/06 11:46:48;;;;;;;0.57;0.47;;;;;;;35.20;95.48;101952.44;10408219;28;20567;-75
2023/09/06 11:51:53;;;;;;;0.10;0.10;;;;;;;35.24;96.73;101943.25;10398222;28;20523;-74
2023/09/06 11:56:56;;;;;;;0.32;0.32;;;;;;;34.77;98.58;101958.59;10403120;28;20428;-75
2023/09/06 12:02:00;;;;;;;0.03;0.03;;;;;;;35.13;98.70;101951.09;10434301;28;20128;-74
2023/09/06 12:07:07;;;;;;;0.17;0.17;;;;;;;35.28;95.58;101943.94;10393699;28;20050;-76
2023/09/06 12:12:09;;;;;;;0.52;0.43;;;;;;;35.46;98.95;101947.28;10436502;28;20076;-76
2023/09/06 12:17:11;;;;;;;0.20;0.13;;;;;;;35.46;96.80;101928.53;10406078;28;20048;-75
2023/09/06 12:22:17;;;;;;;0.28;0.20;;;;;;;35.10;98.33;101928.94;10414623;28;20076;-76
2023/09/06 12:27:20;;;;;;;0.00;0.00;;;;;;;34.34;94.80;101932.56;10401679;28;20060;-75
2023/09/06 12:32:23;;;;;;;0.10;0.10;;;;;;;35.54;97.22;101924.41;10404567;28;20443;-75
2023/09/06 12:37:26;;;;;;;0.00;0.00;;;;;;;34.75;92.86;101923.88;10388941;28;20489;-75
2023/09/06 12:42:27;;;;;;;0.00;0.00;;;;;;;35.32;96.53;101916.84;10388826;28;20132;-74
2023/09/06 12:47:32;;;;;;;0.00;0.00;;;;;;;36.12;95.79;101912.66;10437937;28;20063;-75
2023/09/06 12:52:34;;;;;;;0.10;0.00;;;;;;;35.46;90.37;101909.78;10399783;28;20049;-75
2023/09/06 12:57:35;;;;;;;0.00;0.00;;;;;;;34.73;91.01;101896.38;10423561;28;20061;-75
2023/09/06 13:02:37;;;;;;;0.10;0.10;;;;;;;35.07;93.17;101898.81;10411445;28;20037;-75
2023/09/06 13:07:39;;;;;;;0.03;0.03;;;;;;;35.51;94.46;101902.28;10398739;28;20049;-74
2023/09/06 13:12:41;;;;;;;0.20;0.17;;;;;;;35.83;95.69;101894.81;10395703;28;20493;-76
2023/09/06 13:17:42;;;;;;;0.20;0.20;;;;;;;35.09;89.23;101887.03;10401538;28;20052;-74
2023/09/06 13:22:44;;;;;;;0.25;0.10;;;;;;;35.10;88.96;101891.44;10420538;28;20049;-75
2023/09/06 13:27:46;;;;;;;0.10;0.10;;;;;;;36.07;95.46;101898.69;10424037;28;20033;-74
2023/09/06 13:32:48;;;;;;;0.80;0.32;;;;;;;35.61;95.32;101887.34;10394542;28;20045;-75
2023/09/06 13:37:50;;;;;;;0.15;0.10;;;;;;;35.50;93.77;101884.50;10387335;28;20053;-75
2023/09/06 13:42:51;;;;;;;0.00;0.00;;;;;;;35.23;89.28;101871.91;10389953;28;20045;-75
2023/09/06 13:47:53;;;;;;;0.20;0.15;;;;;;;35.55;94.58;101879.72;10395196;28;20362;-74
2023/09/06 13:52:55;;;;;;;0.28;0.10;;;;;;;35.66;96.81;101874.50;10389631;28;20107;-74
2023/09/06 13:57:56;;;;;;;0.00;0.00;;;;;;;35.60;94.65;101874.91;10393540;28;20041;-74
2023/09/06 14:02:58;;;;;;;0.10;0.00;;;;;;;35.71;100.00;101883.09;10396745;28;20470;-74
2023/09/06 14:08:00;;;;;;;0.22;0.20;;;;;;;35.49;98.33;101877.41;10393494;28;20052;-75
2023/09/06 14:13:02;;;;;;;0.00;0.00;;;;;;;35.29;99.07;101871.50;10402649;28;20073;-74
2023/09/06 14:18:04;;;;;;;0.00;0.00;;;;;;;35.02;97.37;101864.28;10403394;28;20047;-75
2023/09/06 14:23:05;;;;;;;0.05;0.05;;;;;;;35.40;100.00;101862.81;10388784;28;20045;-75
2023/09/06 14:28:09;;;;;;;0.30;0.15;;;;;;;35.10;100.00;101869.13;10420898;28;20041;-74
2023/09/06 14:33:14;;;;;;;0.60;0.28;;;;;;;35.28;100.00;101853.72;10419054;28;20041;-74
2023/09/06 14:38:21;;;;;;;0.10;0.10;;;;;;;35.07;100.00;101851.44;10399477;28;20054;-75
2023/09/06 14:43:23;;;;;;;0.10;0.03;;;;;;;35.57;100.00;101856.34;10394610;28;20053;-75
2023/09/06 14:48:25;;;;;;;0.00;0.00;;;;;;;35.32;100.00;101849.00;10386736;28;20041;-74
2023/09/06 14:53:27;;;;;;;0.15;0.10;;;;;;;34.68;100.00;101844.94;10373992;28;20042;-75
2023/09/06 14:58:29;;;;;;;0.50;0.17;;;;;;;34.52;99.74;101841.47;10353291;28;20489;-74
2023/09/06 15:03:33;;;;;;;0.00;0.00;;;;;;;34.93;100.00;101838.09;10412390;28;20041;-74
2023/09/06 15:08:35;;;;;;;0.10;0.10;;;;;;;34.91;100.00;101832.84;10416636;28;20132;-74
2023/09/06 15:13:37;;;;;;;0.10;0.10;;;;;;;34.63;100.00;101836.34;10417922;28;20064;-75
2023/09/06 15:18:38;;;;;;;0.22;0.13;;;;;;;34.36;100.00;101828.16;10398784;28;20048;-75
2023/09/06 15:23:40;;;;;;;0.00;0.00;;;;;;;34.54;100.00;101839.56;10413389;28;20128;-75
2023/09/06 15:28:42;;;;;;;0.17;0.10;;;;;;;34.58;100.00;101841.13;10401385;28;20374;-74
2023/09/06 15:33:44;;;;;;;0.00;0.00;;;;;;;34.59;100.00;101845.53;10415581;28;20060;-75
2023/09/06 15:38:46;;;;;;;0.10;0.05;;;;;;;35.05;100.00;101844.47;10401753;28;20042;-74
2023/09/06 15:43:47;;;;;;;0.00;0.00;;;;;;;35.31;100.00;101849.97;10415469;28;20063;-75
2023/09/06 15:48:50;;;;;;;0.10;0.10;;;;;;;34.82;100.00;101853.91;10430117;28;20037;-75
2023/09/06 15:53:51;;;;;;;0.00;0.00;;;;;;;34.89;100.00;101857.97;10405535;28;20144;-75
2023/09/06 15:58:53;;;;;;;0.00;0.00;;;;;;;34.73;100.00;101868.72;10393733;28;20076;-75
2023/09/06 16:03:55;;;;;;;0.00;0.00;;;;;;;34.87;100.00;101851.81;10415064;28;20060;-76
2023/09/06 16:08:58;;;;;;;0.00;0.00;;;;;;;35.15;100.00;101847.44;10402018;28;20045;-75
2023/09/06 16:14:00;;;;;;;0.00;0.00;;;;;;;34.77;100.00;101854.22;10423524;28;20037;-74
2023/09/06 16:19:02;;;;;;;0.05;0.05;;;;;;;34.83;100.00;101852.97;10418175;28;20099;-75
2023/09/06 16:24:04;;;;;;;0.00;0.00;;;;;;;35.14;100.00;101851.06;10389333;28;20057;-74
2023/09/06 16:29:07;;;;;;;0.00;0.00;;;;;;;35.16;100.00;101854.50;10399277;28;20042;-75
2023/09/06 16:34:12;;;;;;;0.00;0.00;;;;;;;34.69;100.00;101856.50;10389387;28;20507;-74
2023/09/06 16:39:15;;;;;;;0.00;0.00;;;;;;;34.52;100.00;101854.84;10390276;28;20057;-75
2023/09/06 16:44:17;;;;;;;0.08;0.08;;;;;;;34.53;100.00;101852.09;10395221;28;20069;-75
2023/09/06 16:49:18;;;;;;;0.00;0.00;;;;;;;34.56;100.00;101851.06;10395583;28;20045;-76
2023/09/06 16:54:20;;;;;;;0.00;0.00;;;;;;;34.21;100.00;101856.69;10429511;28;20049;-75
2023/09/06 16:59:22;;;;;;;0.00;0.00;;;;;;;34.16;100.00;101855.13;10430775;28;20050;-74
2023/09/06 17:04:24;;;;;;;0.03;0.00;;;;;;;34.02;100.00;101848.91;10412556;28;20049;-75
2023/09/06 17:09:25;;;;;;;0.05;0.05;;;;;;;33.82;100.00;101851.75;10393650;28;20622;-75
2023/09/06 17:14:27;;;;;;;0.00;0.00;;;;;;;34.12;100.00;101853.63;10402666;28;20504;-75
2023/09/06 17:19:28;;;;;;;0.00;0.00;;;;;;;33.12;100.00;101851.22;10392750;28;20500;-75
2023/09/06 17:24:30;;;;;;;0.00;0.00;;;;;;;33.89;100.00;101859.44;10395587;28;20045;-76
2023/09/06 17:29:38;;;;;;;0.00;0.00;;;;;;;33.16;100.00;101856.31;10415371;28;20408;-75
2023/09/06 17:34:39;;;;;;;0.00;0.00;;;;;;;32.14;100.00;101853.56;10437717;28;20103;-75
2023/09/06 17:39:41;;;;;;;0.08;0.08;;;;;;;32.21;100.00;101855.03;10410565;28;20047;-75
2023/09/06 17:44:43;;;;;;;0.00;0.00;;;;;;;31.82;100.00;101856.06;10404803;28;20045;-74
2023/09/06 17:49:45;;;;;;;0.00;0.00;;;;;;;31.35;100.00;101859.19;10398740;28;20063;-75
2023/09/06 17:54:48;;;;;;;0.00;0.00;;;;;;;31.23;100.00;101850.84;10394032;28;20045;-75
2023/09/06 17:59:52;;;;;;;0.00;0.00;;;;;;;30.35;100.00;101852.88;10401954;28;20045;-75
2023/09/06 18:04:53;;;;;;;0.73;0.30;;;;;;;29.91;100.00;101863.56;10445733;28;20048;-75
2023/09/06 18:09:57;;;;;;;0.00;0.00;;;;;;;29.75;100.00;101864.16;10431813;28;20574;-75
2023/09/06 18:14:59;;;;;;;1.77;0.10;;;;;;;28.87;100.00;101864.81;10407391;28;20050;-75
2023/09/06 18:20:09;;;;;;;0.10;0.10;;;;;;;29.17;100.00;101861.06;10388861;28;20041;-75
2023/09/06 18:25:12;;;;;;;0.90;0.20;;;;;;;28.76;100.00;101867.84;10402379;28;20493;-74
2023/09/06 18:30:15;;;;;;;0.00;0.00;;;;;;;28.77;100.00;101869.59;10408990;28;20127;-75
2023/09/06 18:35:18;;;;;;;0.00;0.00;;;;;;;28.16;100.00;101870.72;10400744;28;20132;-74
2023/09/06 18:40:20;;;;;;;0.00;0.00;;;;;;;28.02;100.00;101875.59;10399807;28;20040;-75
2023/09/06 18:45:22;;;;;;;0.13;0.13;;;;;;;28.06;100.00;101866.63;10417490;28;20081;-75
2023/09/06 18:50:24;;;;;;;0.00;0.00;;;;;;;28.14;100.00;101869.91;10385697;28;20034;-75
2023/09/06 18:55:26;;;;;;;0.00;0.00;;;;;;;28.23;100.00;101878.47;10403462;28;20160;-74
2023/09/06 19:00:28;;;;;;;0.00;0.00;;;;;;;27.70;100.00;101890.69;10408228;28;20107;-75
2023/09/06 19:05:33;;;;;;;0.17;0.10;;;;;;;27.38;100.00;101889.84;10414984;28;20091;-74
2023/09/06 19:10:34;;;;;;;0.00;0.00;;;;;;;27.34;100.00;101888.19;10396377;28;20033;-74
2023/09/06 19:15:36;;;;;;;0.30;0.20;;;;;;;26.96;100.00;101892.78;10447308;28;20146;-74
2023/09/06 19:20:39;;;;;;;0.00;0.00;;;;;;;27.22;100.00;101884.97;10408014;28;20052;-74
2023/09/06 19:25:43;;;;;;;0.25;0.13;;;;;;;26.59;100.00;101892.84;10404567;28;20663;-74
2023/09/06 19:30:48;;;;;;;0.00;0.00;;;;;;;26.71;100.00;101896.06;10399431;28;20037;-74
2023/09/06 19:35:49;;;;;;;0.00;0.00;;;;;;;26.44;100.00;101895.88;10399215;28;20064;-74
2023/09/06 19:40:53;;;;;;;0.00;0.00;;;;;;;26.16;100.00;101901.84;10406515;28;20057;-75
2023/09/06 19:45:56;;;;;;;0.35;0.20;;;;;;;26.16;100.00;101908.88;10414425;28;20135;-74
2023/09/06 19:50:58;;;;;;;0.00;0.00;;;;;;;26.47;100.00;101901.09;10421406;28;20045;-74
2023/09/06 19:55:59;;;;;;;0.00;0.00;;;;;;;25.89;100.00;101909.44;10389675;28;20049;-74
2023/09/06 20:01:01;;;;;;;0.50;0.10;;;;;;;26.17;100.00;101902.69;10384170;28;20045;-74
2023/09/06 20:06:03;;;;;;;0.00;0.00;;;;;;;26.12;100.00;101900.16;10405522;28;20045;-74
2023/09/06 20:11:05;;;;;;;0.00;0.00;;;;;;;25.97;100.00;101902.22;10414330;28;20048;-74
2023/09/06 20:16:06;;;;;;;0.08;0.08;;;;;;;25.68;100.00;101905.53;10404933;28;20072;-75
2023/09/06 20:21:08;;;;;;;0.55;0.10;;;;;;;25.47;100.00;101912.13;10386880;28;20479;-75
2023/09/06 20:26:10;;;;;;;6.82;0.60;;;;;;;25.74;100.00;101905.38;10394625;28;20057;-74
2023/09/06 20:31:12;;;;;;;0.00;0.00;;;;;;;25.66;100.00;101912.59;10397338;28;20103;-75
2023/09/06 20:36:13;;;;;;;0.00;0.00;;;;;;;25.39;100.00;101914.03;10386215;28;20064;-74
2023/09/06 20:41:15;;;;;;;0.00;0.00;;;;;;;25.18;100.00;101911.75;10394019;28;20045;-75
2023/09/06 20:46:16;;;;;;;0.00;0.00;;;;;;;25.28;100.00;101907.16;10404784;28;20049;-75
2023/09/06 20:51:18;;;;;;;0.10;0.10;;;;;;;25.11;100.00;101909.28;10421618;28;20080;-74
2023/09/06 20:56:20;;;;;;;0.00;0.00;;;;;;;25.03;100.00;101918.22;10421718;28;20055;-75
2023/09/06 21:01:22;;;;;;;0.00;0.00;;;;;;;25.15;100.00;101910.94;10399205;28;20370;-75
2023/09/06 21:06:24;;;;;;;0.77;0.20;;;;;;;24.96;100.00;101918.34;10392272;28;20048;-74
2023/09/06 21:11:26;;;;;;;0.05;0.05;;;;;;;24.96;100.00;101919.22;10411368;28;20044;-74
2023/09/06 21:16:27;;;;;;;0.00;0.00;;;;;;;25.04;100.00;101921.69;10382512;28;20042;-74
2023/09/06 21:21:29;;;;;;;0.00;0.00;;;;;;;24.17;100.00;101924.88;10398457;28;20048;-74
2023/09/06 21:26:31;;;;;;;0.08;0.00;;;;;;;24.71;100.00;101926.69;10375335;28;20041;-75
2023/09/06 21:31:33;;;;;;;0.28;0.00;;;;;;;25.06;100.00;101926.97;10395275;28;20069;-75
2023/09/06 21:36:35;;;;;;;0.00;0.00;;;;;;;25.16;100.00;101923.25;10399439;28;20107;-75
2023/09/06 21:41:37;;;;;;;0.63;0.10;;;;;;;24.86;100.00;101920.28;10397514;28;20068;-74
2023/09/06 21:46:38;;;;;;;0.08;0.00;;;;;;;24.51;100.00;101935.75;10408941;28;20037;-75
2023/09/06 21:51:40;;;;;;;0.10;0.10;;;;;;;24.06;100.00;101932.91;10399943;28;20416;-74
2023/09/06 21:56:42;;;;;;;1.70;0.60;;;;;;;24.36;100.00;101926.34;10416869;28;20411;-74
2023/09/06 22:01:43;;;;;;;0.30;0.15;;;;;;;23.98;100.00;101940.94;10409801;28;20045;-75
2023/09/06 22:07:04;;;;;;;0.00;0.00;;;;;;;24.18;100.00;101934.50;10396894;28;20124;-74
2023/09/06 22:12:24;;;;;;;0.10;0.10;;;;;;;23.73;100.00;101938.59;10398179;28;20042;-74
2023/09/06 22:17:26;;;;;;;0.10;0.00;;;;;;;24.07;100.00;101946.06;10371906;28;20704;-75
2023/09/06 22:22:28;;;;;;;0.43;0.10;;;;;;;23.72;100.00;101952.63;10397294;28;20488;-75
2023/09/06 22:27:30;;;;;;;0.03;0.03;;;;;;;24.07;100.00;101945.19;10410411;28;20404;-75
2023/09/06 22:32:31;;;;;;;0.10;0.10;;;;;;;23.89;100.00;101941.03;10400726;28;20045;-75
2023/09/06 22:37:36;;;;;;;0.00;0.00;;;;;;;23.83;100.00;101946.38;10390567;28;20048;-75
2023/09/06 22:42:38;;;;;;;0.80;0.20;;;;;;;24.01;100.00;101940.91;10427086;28;20586;-75
2023/09/06 22:47:40;;;;;;;0.00;0.00;;;;;;;23.97;100.00;101947.09;10396290;28;20054;-75
2023/09/06 22:52:42;;;;;;;0.00;0.00;;;;;;;23.73;100.00;101949.09;10414037;28;20053;-75
2023/09/06 22:57:43;;;;;;;0.25;0.00;;;;;;;23.75;100.00;101943.84;10409403;28;20057;-75